sensor_id;sensor_type;location;lat;lon;timestamp;P1;P2;P0
49644;PMS5003;36494;50.730;-1.932;2023-12-20T00:00:32;6;6;
49644;PMS5003;36494;50.730;-1.932;2023-12-20T00:02:58;8;7;
49644;PMS5003;36494;50.730;-1.932;2023-12-20T00:05:23;5;4;
49644;PMS5003;36494;50.730;-1.932;2023-12-20T00:07:49;5;5;
49644;PMS5003;36494;50.730;-1.932;2023-12-20T00:10:14;5;5;
49644;PMS5003;36494;50.730;-1.932;2023-12-20T00:12:40;7;5;
49644;PMS5003;36494;50.730;-1.932;2023-12-20T00:15:05;5;5;
49644;PMS5003;36494;50.730;-1.932;2023-12-20T00:17:30;7;5;
49644;PMS5003;36494;50.730;-1.932;2023-12-20T00:19:56;4;4;
49644;PMS5003;36494;50.730;-1.932;2023-12-20T00:22:21;4;4;
49644;PMS5003;36494;50.730;-1.932;2023-12-20T00:24:46;4;4;
49644;PMS5003;36494;50.730;-1.932;2023-12-20T00:27:12;3;3;
49644;PMS5003;36494;50.730;-1.932;2023-12-20T00:29:37;4;3;
49644;PMS5003;36494;50.730;-1.932;2023-12-20T00:32:03;5;5;
49644;PMS5003;36494;50.730;-1.932;2023-12-20T00:34:28;5;5;
49644;PMS5003;36494;50.730;-1.932;2023-12-20T00:36:54;5;4;
49644;PMS5003;36494;50.730;-1.932;2023-12-20T00:39:19;5;5;
49644;PMS5003;36494;50.730;-1.932;2023-12-20T00:41:44;3;3;
49644;PMS5003;36494;50.730;-1.932;2023-12-20T00:44:10;4;4;
49644;PMS5003;36494;50.730;-1.932;2023-12-20T00:46:35;6;5;
49644;PMS5003;36494;50.730;-1.932;2023-12-20T00:49:00;4;3;
49644;PMS5003;36494;50.730;-1.932;2023-12-20T00:51:25;4;4;
49644;PMS5003;36494;50.730;-1.932;2023-12-20T00:53:51;7;5;
49644;PMS5003;36494;50.730;-1.932;2023-12-20T00:56:16;6;5;
49644;PMS5003;36494;50.730;-1.932;2023-12-20T00:58:41;5;4;
49644;PMS5003;36494;50.730;-1.932;2023-12-20T01:01:07;4;4;
49644;PMS5003;36494;50.730;-1.932;2023-12-20T01:03:32;6;5;
49644;PMS5003;36494;50.730;-1.932;2023-12-20T01:05:57;5;4;
49644;PMS5003;36494;50.730;-1.932;2023-12-20T01:08:23;5;4;
49644;PMS5003;36494;50.730;-1.932;2023-12-20T01:10:48;5;5;
49644;PMS5003;36494;50.730;-1.932;2023-12-20T01:13:14;4;3;
49644;PMS5003;36494;50.730;-1.932;2023-12-20T01:15:39;4;3;
49644;PMS5003;36494;50.730;-1.932;2023-12-20T01:18:04;3;3;
49644;PMS5003;36494;50.730;-1.932;2023-12-20T01:20:30;4;4;
49644;PMS5003;36494;50.730;-1.932;2023-12-20T01:22:55;3;3;
49644;PMS5003;36494;50.730;-1.932;2023-12-20T01:25:23;4;4;
49644;PMS5003;36494;50.730;-1.932;2023-12-20T01:27:46;3;3;
49644;PMS5003;36494;50.730;-1.932;2023-12-20T01:30:11;4;4;
49644;PMS5003;36494;50.730;-1.932;2023-12-20T01:32:36;3;3;
49644;PMS5003;36494;50.730;-1.932;2023-12-20T01:35:02;3;3;
49644;PMS5003;36494;50.730;-1.932;2023-12-20T01:37:29;4;4;
49644;PMS5003;36494;50.730;-1.932;2023-12-20T01:39:53;3;3;
49644;PMS5003;36494;50.730;-1.932;2023-12-20T01:42:18;4;4;
49644;PMS5003;36494;50.730;-1.932;2023-12-20T01:44:43;4;4;
49644;PMS5003;36494;50.730;-1.932;2023-12-20T01:47:09;2;2;
49644;PMS5003;36494;50.730;-1.932;2023-12-20T01:49:38;4;4;
49644;PMS5003;36494;50.730;-1.932;2023-12-20T01:51:59;3;3;
49644;PMS5003;36494;50.730;-1.932;2023-12-20T01:54:25;5;5;
49644;PMS5003;36494;50.730;-1.932;2023-12-20T01:56:50;6;5;
49644;PMS5003;36494;50.730;-1.932;2023-12-20T01:59:15;4;4;
49644;PMS5003;36494;50.730;-1.932;2023-12-20T02:01:41;5;5;
49644;PMS5003;36494;50.730;-1.932;2023-12-20T02:04:06;4;4;
49644;PMS5003;36494;50.730;-1.932;2023-12-20T02:06:31;3;3;
49644;PMS5003;36494;50.730;-1.932;2023-12-20T02:08:57;5;3;
49644;PMS5003;36494;50.730;-1.932;2023-12-20T02:11:21;4;4;
49644;PMS5003;36494;50.730;-1.932;2023-12-20T02:13:47;5;4;
49644;PMS5003;36494;50.730;-1.932;2023-12-20T02:16:12;3;3;
49644;PMS5003;36494;50.730;-1.932;2023-12-20T02:18:37;3;3;
49644;PMS5003;36494;50.730;-1.932;2023-12-20T02:21:03;3;3;
49644;PMS5003;36494;50.730;-1.932;2023-12-20T02:23:28;4;3;
49644;PMS5003;36494;50.730;-1.932;2023-12-20T02:25:55;6;5;
49644;PMS5003;36494;50.730;-1.932;2023-12-20T02:28:19;3;3;
49644;PMS5003;36494;50.730;-1.932;2023-12-20T02:30:44;4;4;
49644;PMS5003;36494;50.730;-1.932;2023-12-20T02:33:10;5;5;
49644;PMS5003;36494;50.730;-1.932;2023-12-20T02:35:35;6;6;
49644;PMS5003;36494;50.730;-1.932;2023-12-20T02:38:01;4;4;
49644;PMS5003;36494;50.730;-1.932;2023-12-20T02:40:26;5;4;
49644;PMS5003;36494;50.730;-1.932;2023-12-20T02:42:51;3;3;
49644;PMS5003;36494;50.730;-1.932;2023-12-20T02:45:17;3;3;
49644;PMS5003;36494;50.730;-1.932;2023-12-20T02:47:42;3;3;
49644;PMS5003;36494;50.730;-1.932;2023-12-20T02:50:09;4;3;
49644;PMS5003;36494;50.730;-1.932;2023-12-20T02:52:33;5;5;
49644;PMS5003;36494;50.730;-1.932;2023-12-20T02:54:58;4;4;
49644;PMS5003;36494;50.730;-1.932;2023-12-20T02:57:24;5;4;
49644;PMS5003;36494;50.730;-1.932;2023-12-20T02:59:49;4;4;
49644;PMS5003;36494;50.730;-1.932;2023-12-20T03:02:15;3;3;
49644;PMS5003;36494;50.730;-1.932;2023-12-20T03:04:42;4;4;
49644;PMS5003;36494;50.730;-1.932;2023-12-20T03:07:05;4;4;
49644;PMS5003;36494;50.730;-1.932;2023-12-20T03:09:31;4;4;
49644;PMS5003;36494;50.730;-1.932;2023-12-20T03:11:56;4;4;
49644;PMS5003;36494;50.730;-1.932;2023-12-20T03:14:21;4;4;
49644;PMS5003;36494;50.730;-1.932;2023-12-20T03:16:46;4;3;
49644;PMS5003;36494;50.730;-1.932;2023-12-20T03:19:12;2;2;
49644;PMS5003;36494;50.730;-1.932;2023-12-20T03:21:37;4;4;
49644;PMS5003;36494;50.730;-1.932;2023-12-20T03:24:02;4;4;
49644;PMS5003;36494;50.730;-1.932;2023-12-20T03:26:28;4;4;
49644;PMS5003;36494;50.730;-1.932;2023-12-20T03:28:53;4;4;
49644;PMS5003;36494;50.730;-1.932;2023-12-20T03:31:19;6;4;
49644;PMS5003;36494;50.730;-1.932;2023-12-20T03:33:44;3;2;
49644;PMS5003;36494;50.730;-1.932;2023-12-20T03:36:09;3;3;
49644;PMS5003;36494;50.730;-1.932;2023-12-20T03:38:38;5;4;
49644;PMS5003;36494;50.730;-1.932;2023-12-20T03:41:00;3;3;
49644;PMS5003;36494;50.730;-1.932;2023-12-20T03:43:25;9;8;
49644;PMS5003;36494;50.730;-1.932;2023-12-20T03:45:51;4;4;
49644;PMS5003;36494;50.730;-1.932;2023-12-20T03:48:16;4;4;
49644;PMS5003;36494;50.730;-1.932;2023-12-20T03:50:42;3;3;
49644;PMS5003;36494;50.730;-1.932;2023-12-20T03:53:07;4;4;
49644;PMS5003;36494;50.730;-1.932;2023-12-20T03:55:32;4;3;
49644;PMS5003;36494;50.730;-1.932;2023-12-20T03:57:58;4;4;
49644;PMS5003;36494;50.730;-1.932;2023-12-20T04:00:23;4;4;
49644;PMS5003;36494;50.730;-1.932;2023-12-20T04:02:52;4;3;
49644;PMS5003;36494;50.730;-1.932;2023-12-20T04:05:14;3;3;
49644;PMS5003;36494;50.730;-1.932;2023-12-20T04:07:39;2;2;
49644;PMS5003;36494;50.730;-1.932;2023-12-20T04:10:05;6;4;
49644;PMS5003;36494;50.730;-1.932;2023-12-20T04:12:30;4;2;
49644;PMS5003;36494;50.730;-1.932;2023-12-20T04:14:58;4;4;
49644;PMS5003;36494;50.730;-1.932;2023-12-20T04:17:21;3;3;
49644;PMS5003;36494;50.730;-1.932;2023-12-20T04:19:46;3;3;
49644;PMS5003;36494;50.730;-1.932;2023-12-20T04:22:11;5;5;
49644;PMS5003;36494;50.730;-1.932;2023-12-20T04:24:36;5;3;
49644;PMS5003;36494;50.730;-1.932;2023-12-20T04:27:01;2;2;
49644;PMS5003;36494;50.730;-1.932;2023-12-20T04:29:27;4;3;
49644;PMS5003;36494;50.730;-1.932;2023-12-20T04:31:52;6;4;
49644;PMS5003;36494;50.730;-1.932;2023-12-20T04:34:17;4;3;
49644;PMS5003;36494;50.730;-1.932;2023-12-20T04:36:42;4;3;
49644;PMS5003;36494;50.730;-1.932;2023-12-20T04:39:08;4;4;
49644;PMS5003;36494;50.730;-1.932;2023-12-20T04:41:33;4;4;
49644;PMS5003;36494;50.730;-1.932;2023-12-20T04:43:59;2;2;
49644;PMS5003;36494;50.730;-1.932;2023-12-20T04:46:24;5;3;
49644;PMS5003;36494;50.730;-1.932;2023-12-20T04:48:49;5;4;
49644;PMS5003;36494;50.730;-1.932;2023-12-20T04:51:15;4;3;
49644;PMS5003;36494;50.730;-1.932;2023-12-20T04:53:40;4;4;
49644;PMS5003;36494;50.730;-1.932;2023-12-20T04:56:06;6;5;
49644;PMS5003;36494;50.730;-1.932;2023-12-20T04:58:31;6;3;
49644;PMS5003;36494;50.730;-1.932;2023-12-20T05:00:56;3;3;
49644;PMS5003;36494;50.730;-1.932;2023-12-20T05:03:22;4;4;
49644;PMS5003;36494;50.730;-1.932;2023-12-20T05:05:47;5;4;
49644;PMS5003;36494;50.730;-1.932;2023-12-20T05:08:13;3;3;
49644;PMS5003;36494;50.730;-1.932;2023-12-20T05:10:38;2;2;
49644;PMS5003;36494;50.730;-1.932;2023-12-20T05:13:03;5;5;
49644;PMS5003;36494;50.730;-1.932;2023-12-20T05:15:29;3;3;
49644;PMS5003;36494;50.730;-1.932;2023-12-20T05:17:54;3;3;
49644;PMS5003;36494;50.730;-1.932;2023-12-20T05:20:20;2;2;
49644;PMS5003;36494;50.730;-1.932;2023-12-20T05:22:45;2;2;
49644;PMS5003;36494;50.730;-1.932;2023-12-20T05:25:13;3;3;
49644;PMS5003;36494;50.730;-1.932;2023-12-20T05:27:36;3;3;
49644;PMS5003;36494;50.730;-1.932;2023-12-20T05:30:01;5;5;
49644;PMS5003;36494;50.730;-1.932;2023-12-20T05:32:26;4;4;
49644;PMS5003;36494;50.730;-1.932;2023-12-20T05:34:51;4;4;
49644;PMS5003;36494;50.730;-1.932;2023-12-20T05:37:17;3;3;
49644;PMS5003;36494;50.730;-1.932;2023-12-20T05:39:42;3;2;
49644;PMS5003;36494;50.730;-1.932;2023-12-20T05:42:07;6;5;
49644;PMS5003;36494;50.730;-1.932;2023-12-20T05:44:33;6;5;
49644;PMS5003;36494;50.730;-1.932;2023-12-20T05:46:59;5;4;
49644;PMS5003;36494;50.730;-1.932;2023-12-20T05:49:24;4;3;
49644;PMS5003;36494;50.730;-1.932;2023-12-20T05:51:50;5;4;
49644;PMS5003;36494;50.730;-1.932;2023-12-20T05:54:15;4;3;
49644;PMS5003;36494;50.730;-1.932;2023-12-20T05:56:40;4;4;
49644;PMS5003;36494;50.730;-1.932;2023-12-20T05:59:06;3;3;
49644;PMS5003;36494;50.730;-1.932;2023-12-20T06:01:31;6;6;
49644;PMS5003;36494;50.730;-1.932;2023-12-20T06:03:58;10;10;
49644;PMS5003;36494;50.730;-1.932;2023-12-20T06:06:22;10;9;
49644;PMS5003;36494;50.730;-1.932;2023-12-20T06:08:47;10;9;
49644;PMS5003;36494;50.730;-1.932;2023-12-20T06:11:12;9;8;
49644;PMS5003;36494;50.730;-1.932;2023-12-20T06:13:38;6;5;
49644;PMS5003;36494;50.730;-1.932;2023-12-20T06:16:04;8;8;
49644;PMS5003;36494;50.730;-1.932;2023-12-20T06:18:29;10;8;
49644;PMS5003;36494;50.730;-1.932;2023-12-20T06:20:54;9;8;
49644;PMS5003;36494;50.730;-1.932;2023-12-20T06:23:19;7;7;
49644;PMS5003;36494;50.730;-1.932;2023-12-20T06:25:46;6;6;
49644;PMS5003;36494;50.730;-1.932;2023-12-20T06:28:10;8;7;
49644;PMS5003;36494;50.730;-1.932;2023-12-20T06:30:35;7;6;
49644;PMS5003;36494;50.730;-1.932;2023-12-20T06:33:00;7;7;
49644;PMS5003;36494;50.730;-1.932;2023-12-20T06:35:25;6;6;
49644;PMS5003;36494;50.730;-1.932;2023-12-20T06:37:51;6;6;
49644;PMS5003;36494;50.730;-1.932;2023-12-20T06:40:17;6;6;
49644;PMS5003;36494;50.730;-1.932;2023-12-20T06:42:41;8;8;
49644;PMS5003;36494;50.730;-1.932;2023-12-20T06:45:07;8;7;
49644;PMS5003;36494;50.730;-1.932;2023-12-20T06:47:32;8;6;
49644;PMS5003;36494;50.730;-1.932;2023-12-20T06:49:57;6;6;
49644;PMS5003;36494;50.730;-1.932;2023-12-20T06:52:25;5;5;
49644;PMS5003;36494;50.730;-1.932;2023-12-20T06:54:47;5;5;
49644;PMS5003;36494;50.730;-1.932;2023-12-20T06:57:12;5;5;
49644;PMS5003;36494;50.730;-1.932;2023-12-20T06:59:38;9;7;
49644;PMS5003;36494;50.730;-1.932;2023-12-20T07:02:03;9;7;
49644;PMS5003;36494;50.730;-1.932;2023-12-20T07:04:28;8;7;
49644;PMS5003;36494;50.730;-1.932;2023-12-20T07:06:53;11;11;
49644;PMS5003;36494;50.730;-1.932;2023-12-20T07:09:19;9;7;
49644;PMS5003;36494;50.730;-1.932;2023-12-20T07:11:44;7;7;
49644;PMS5003;36494;50.730;-1.932;2023-12-20T07:14:10;8;8;
49644;PMS5003;36494;50.730;-1.932;2023-12-20T07:16:38;7;6;
49644;PMS5003;36494;50.730;-1.932;2023-12-20T07:19:00;7;6;
49644;PMS5003;36494;50.730;-1.932;2023-12-20T07:21:26;8;8;
49644;PMS5003;36494;50.730;-1.932;2023-12-20T07:23:51;7;6;
49644;PMS5003;36494;50.730;-1.932;2023-12-20T07:26:17;8;6;
49644;PMS5003;36494;50.730;-1.932;2023-12-20T07:28:45;6;6;
49644;PMS5003;36494;50.730;-1.932;2023-12-20T07:31:07;5;5;
49644;PMS5003;36494;50.730;-1.932;2023-12-20T07:33:33;9;7;
49644;PMS5003;36494;50.730;-1.932;2023-12-20T07:35:59;5;5;
49644;PMS5003;36494;50.730;-1.932;2023-12-20T07:38:24;7;4;
49644;PMS5003;36494;50.730;-1.932;2023-12-20T07:40:49;5;5;
49644;PMS5003;36494;50.730;-1.932;2023-12-20T07:43:14;7;5;
49644;PMS5003;36494;50.730;-1.932;2023-12-20T07:45:40;6;5;
49644;PMS5003;36494;50.730;-1.932;2023-12-20T07:48:06;5;4;
49644;PMS5003;36494;50.730;-1.932;2023-12-20T07:50:30;8;7;
49644;PMS5003;36494;50.730;-1.932;2023-12-20T07:52:55;4;4;
49644;PMS5003;36494;50.730;-1.932;2023-12-20T07:55:20;5;5;
49644;PMS5003;36494;50.730;-1.932;2023-12-20T07:57:46;7;5;
49644;PMS5003;36494;50.730;-1.932;2023-12-20T08:00:12;8;8;
49644;PMS5003;36494;50.730;-1.932;2023-12-20T08:02:37;9;8;
49644;PMS5003;36494;50.730;-1.932;2023-12-20T08:05:06;5;5;
49644;PMS5003;36494;50.730;-1.932;2023-12-20T08:07:28;7;6;
49644;PMS5003;36494;50.730;-1.932;2023-12-20T08:09:53;7;7;
49644;PMS5003;36494;50.730;-1.932;2023-12-20T08:12:19;4;4;
49644;PMS5003;36494;50.730;-1.932;2023-12-20T08:14:44;4;4;
49644;PMS5003;36494;50.730;-1.932;2023-12-20T08:17:10;4;4;
49644;PMS5003;36494;50.730;-1.932;2023-12-20T08:19:35;7;5;
49644;PMS5003;36494;50.730;-1.932;2023-12-20T08:22:00;1;1;
49644;PMS5003;36494;50.730;-1.932;2023-12-20T08:24:25;3;3;
49644;PMS5003;36494;50.730;-1.932;2023-12-20T08:26:51;4;3;
49644;PMS5003;36494;50.730;-1.932;2023-12-20T08:29:16;3;3;
49644;PMS5003;36494;50.730;-1.932;2023-12-20T08:31:41;5;4;
49644;PMS5003;36494;50.730;-1.932;2023-12-20T08:34:07;4;3;
49644;PMS5003;36494;50.730;-1.932;2023-12-20T08:36:32;2;1;
49644;PMS5003;36494;50.730;-1.932;2023-12-20T08:38:57;2;2;
49644;PMS5003;36494;50.730;-1.932;2023-12-20T08:41:26;1;1;
49644;PMS5003;36494;50.730;-1.932;2023-12-20T08:43:48;4;3;
49644;PMS5003;36494;50.730;-1.932;2023-12-20T08:46:14;7;7;
49644;PMS5003;36494;50.730;-1.932;2023-12-20T08:48:39;5;3;
49644;PMS5003;36494;50.730;-1.932;2023-12-20T08:51:04;4;3;
49644;PMS5003;36494;50.730;-1.932;2023-12-20T08:53:30;3;3;
49644;PMS5003;36494;50.730;-1.932;2023-12-20T08:55:55;3;3;
49644;PMS5003;36494;50.730;-1.932;2023-12-20T08:58:20;2;2;
49644;PMS5003;36494;50.730;-1.932;2023-12-20T09:00:45;1;1;
49644;PMS5003;36494;50.730;-1.932;2023-12-20T09:03:10;2;1;
49644;PMS5003;36494;50.730;-1.932;2023-12-20T09:05:39;2;1;
49644;PMS5003;36494;50.730;-1.932;2023-12-20T09:08:01;1;1;
49644;PMS5003;36494;50.730;-1.932;2023-12-20T09:10:26;4;4;
49644;PMS5003;36494;50.730;-1.932;2023-12-20T09:12:52;4;2;
49644;PMS5003;36494;50.730;-1.932;2023-12-20T09:15:17;3;2;
49644;PMS5003;36494;50.730;-1.932;2023-12-20T09:17:42;2;2;
49644;PMS5003;36494;50.730;-1.932;2023-12-20T09:20:07;3;3;
49644;PMS5003;36494;50.730;-1.932;2023-12-20T09:22:32;4;2;
49644;PMS5003;36494;50.730;-1.932;2023-12-20T09:24:57;2;2;
49644;PMS5003;36494;50.730;-1.932;2023-12-20T09:27:23;3;3;
49644;PMS5003;36494;50.730;-1.932;2023-12-20T09:29:48;2;2;
49644;PMS5003;36494;50.730;-1.932;2023-12-20T09:32:13;3;3;
49644;PMS5003;36494;50.730;-1.932;2023-12-20T09:34:39;2;2;
49644;PMS5003;36494;50.730;-1.932;2023-12-20T09:37:04;5;4;
49644;PMS5003;36494;50.730;-1.932;2023-12-20T09:39:29;2;1;
49644;PMS5003;36494;50.730;-1.932;2023-12-20T09:42:00;2;2;
49644;PMS5003;36494;50.730;-1.932;2023-12-20T09:44:19;2;1;
49644;PMS5003;36494;50.730;-1.932;2023-12-20T09:46:45;6;6;
49644;PMS5003;36494;50.730;-1.932;2023-12-20T09:49:10;3;3;
49644;PMS5003;36494;50.730;-1.932;2023-12-20T09:51:35;2;1;
49644;PMS5003;36494;50.730;-1.932;2023-12-20T09:54:01;1;1;
49644;PMS5003;36494;50.730;-1.932;2023-12-20T09:56:26;2;2;
49644;PMS5003;36494;50.730;-1.932;2023-12-20T09:58:51;2;2;
49644;PMS5003;36494;50.730;-1.932;2023-12-20T10:01:17;2;2;
49644;PMS5003;36494;50.730;-1.932;2023-12-20T10:03:42;4;4;
49644;PMS5003;36494;50.730;-1.932;2023-12-20T10:06:07;3;3;
49644;PMS5003;36494;50.730;-1.932;2023-12-20T10:08:32;2;2;
49644;PMS5003;36494;50.730;-1.932;2023-12-20T10:10:58;1;1;
49644;PMS5003;36494;50.730;-1.932;2023-12-20T10:13:23;2;2;
49644;PMS5003;36494;50.730;-1.932;2023-12-20T10:15:49;2;2;
49644;PMS5003;36494;50.730;-1.932;2023-12-20T10:18:17;2;2;
49644;PMS5003;36494;50.730;-1.932;2023-12-20T10:20:40;4;3;
49644;PMS5003;36494;50.730;-1.932;2023-12-20T10:23:04;1;1;
49644;PMS5003;36494;50.730;-1.932;2023-12-20T10:25:29;2;2;
49644;PMS5003;36494;50.730;-1.932;2023-12-20T10:30:20;4;2;
49644;PMS5003;36494;50.730;-1.932;2023-12-20T10:32:45;2;2;
49644;PMS5003;36494;50.730;-1.932;2023-12-20T10:35:11;3;3;
49644;PMS5003;36494;50.730;-1.932;2023-12-20T10:37:36;0;0;
49644;PMS5003;36494;50.730;-1.932;2023-12-20T10:40:02;1;0;
49644;PMS5003;36494;50.730;-1.932;2023-12-20T10:42:27;1;1;
49644;PMS5003;36494;50.730;-1.932;2023-12-20T10:44:52;1;1;
49644;PMS5003;36494;50.730;-1.932;2023-12-20T10:47:17;3;3;
49644;PMS5003;36494;50.730;-1.932;2023-12-20T10:49:43;1;1;
49644;PMS5003;36494;50.730;-1.932;2023-12-20T10:52:09;4;4;
49644;PMS5003;36494;50.730;-1.932;2023-12-20T10:54:37;3;2;
49644;PMS5003;36494;50.730;-1.932;2023-12-20T10:56:59;2;2;
49644;PMS5003;36494;50.730;-1.932;2023-12-20T10:59:25;1;1;
49644;PMS5003;36494;50.730;-1.932;2023-12-20T11:01:50;0;0;
49644;PMS5003;36494;50.730;-1.932;2023-12-20T11:04:17;3;3;
49644;PMS5003;36494;50.730;-1.932;2023-12-20T11:06:45;1;1;
49644;PMS5003;36494;50.730;-1.932;2023-12-20T11:09:10;3;3;
49644;PMS5003;36494;50.730;-1.932;2023-12-20T11:11:32;2;2;
49644;PMS5003;36494;50.730;-1.932;2023-12-20T11:13:58;2;1;
49644;PMS5003;36494;50.730;-1.932;2023-12-20T11:16:22;5;4;
49644;PMS5003;36494;50.730;-1.932;2023-12-20T11:18:51;3;3;
49644;PMS5003;36494;50.730;-1.932;2023-12-20T11:21:13;4;2;
49644;PMS5003;36494;50.730;-1.932;2023-12-20T11:23:38;2;1;
49644;PMS5003;36494;50.730;-1.932;2023-12-20T11:26:03;1;1;
49644;PMS5003;36494;50.730;-1.932;2023-12-20T11:28:29;2;1;
49644;PMS5003;36494;50.730;-1.932;2023-12-20T11:30:54;3;3;
49644;PMS5003;36494;50.730;-1.932;2023-12-20T11:33:22;0;0;
49644;PMS5003;36494;50.730;-1.932;2023-12-20T11:35:45;1;1;
49644;PMS5003;36494;50.730;-1.932;2023-12-20T11:38:10;1;1;
49644;PMS5003;36494;50.730;-1.932;2023-12-20T11:40:35;1;1;
49644;PMS5003;36494;50.730;-1.932;2023-12-20T11:43:00;3;2;
49644;PMS5003;36494;50.730;-1.932;2023-12-20T11:45:25;2;0;
49644;PMS5003;36494;50.730;-1.932;2023-12-20T11:47:51;1;1;
49644;PMS5003;36494;50.730;-1.932;2023-12-20T11:50:16;3;3;
49644;PMS5003;36494;50.730;-1.932;2023-12-20T11:52:41;2;2;
49644;PMS5003;36494;50.730;-1.932;2023-12-20T11:55:07;1;1;
49644;PMS5003;36494;50.730;-1.932;2023-12-20T11:57:33;4;4;
49644;PMS5003;36494;50.730;-1.932;2023-12-20T11:59:58;7;7;
49644;PMS5003;36494;50.730;-1.932;2023-12-20T12:02:23;4;4;
49644;PMS5003;36494;50.730;-1.932;2023-12-20T12:04:48;5;4;
49644;PMS5003;36494;50.730;-1.932;2023-12-20T12:07:14;5;5;
49644;PMS5003;36494;50.730;-1.932;2023-12-20T12:09:39;5;5;
49644;PMS5003;36494;50.730;-1.932;2023-12-20T12:12:05;4;3;
49644;PMS5003;36494;50.730;-1.932;2023-12-20T12:14:30;6;5;
49644;PMS5003;36494;50.730;-1.932;2023-12-20T12:16:55;6;5;
49644;PMS5003;36494;50.730;-1.932;2023-12-20T12:19:22;4;4;
49644;PMS5003;36494;50.730;-1.932;2023-12-20T12:21:45;6;5;
49644;PMS5003;36494;50.730;-1.932;2023-12-20T12:24:11;11;9;
49644;PMS5003;36494;50.730;-1.932;2023-12-20T12:26:36;8;7;
49644;PMS5003;36494;50.730;-1.932;2023-12-20T12:29:01;8;8;
49644;PMS5003;36494;50.730;-1.932;2023-12-20T12:31:26;12;12;
49644;PMS5003;36494;50.730;-1.932;2023-12-20T12:33:51;14;11;
49644;PMS5003;36494;50.730;-1.932;2023-12-20T12:36:16;12;11;
49644;PMS5003;36494;50.730;-1.932;2023-12-20T12:38:42;10;9;
49644;PMS5003;36494;50.730;-1.932;2023-12-20T12:41:07;12;12;
49644;PMS5003;36494;50.730;-1.932;2023-12-20T12:43:33;9;9;
49644;PMS5003;36494;50.730;-1.932;2023-12-20T12:45:58;7;7;
49644;PMS5003;36494;50.730;-1.932;2023-12-20T12:48:23;5;5;
49644;PMS5003;36494;50.730;-1.932;2023-12-20T12:50:48;6;6;
49644;PMS5003;36494;50.730;-1.932;2023-12-20T12:53:14;4;3;
49644;PMS5003;36494;50.730;-1.932;2023-12-20T12:55:40;4;4;
49644;PMS5003;36494;50.730;-1.932;2023-12-20T12:58:05;3;3;
49644;PMS5003;36494;50.730;-1.932;2023-12-20T13:00:30;7;7;
49644;PMS5003;36494;50.730;-1.932;2023-12-20T13:02:56;8;7;
49644;PMS5003;36494;50.730;-1.932;2023-12-20T13:05:21;7;7;
49644;PMS5003;36494;50.730;-1.932;2023-12-20T13:07:46;9;7;
49644;PMS5003;36494;50.730;-1.932;2023-12-20T13:10:11;8;7;
49644;PMS5003;36494;50.730;-1.932;2023-12-20T13:12:37;11;11;
49644;PMS5003;36494;50.730;-1.932;2023-12-20T13:15:02;6;6;
49644;PMS5003;36494;50.730;-1.932;2023-12-20T13:17:27;6;6;
49644;PMS5003;36494;50.730;-1.932;2023-12-20T13:19:53;3;3;
49644;PMS5003;36494;50.730;-1.932;2023-12-20T13:22:18;5;5;
49644;PMS5003;36494;50.730;-1.932;2023-12-20T13:24:43;4;4;
49644;PMS5003;36494;50.730;-1.932;2023-12-20T13:27:09;5;5;
49644;PMS5003;36494;50.730;-1.932;2023-12-20T13:29:34;2;2;
49644;PMS5003;36494;50.730;-1.932;2023-12-20T13:32:03;2;2;
49644;PMS5003;36494;50.730;-1.932;2023-12-20T13:34:25;4;4;
49644;PMS5003;36494;50.730;-1.932;2023-12-20T13:36:50;3;3;
49644;PMS5003;36494;50.730;-1.932;2023-12-20T13:39:15;3;3;
49644;PMS5003;36494;50.730;-1.932;2023-12-20T13:41:41;2;2;
49644;PMS5003;36494;50.730;-1.932;2023-12-20T13:44:06;1;1;
49644;PMS5003;36494;50.730;-1.932;2023-12-20T13:46:36;1;1;
49644;PMS5003;36494;50.730;-1.932;2023-12-20T13:48:57;1;1;
49644;PMS5003;36494;50.730;-1.932;2023-12-20T13:51:22;2;2;
49644;PMS5003;36494;50.730;-1.932;2023-12-20T13:53:47;4;4;
49644;PMS5003;36494;50.730;-1.932;2023-12-20T13:56:13;1;1;
49644;PMS5003;36494;50.730;-1.932;2023-12-20T13:58:38;2;2;
49644;PMS5003;36494;50.730;-1.932;2023-12-20T14:01:03;1;1;
49644;PMS5003;36494;50.730;-1.932;2023-12-20T14:03:29;3;3;
49644;PMS5003;36494;50.730;-1.932;2023-12-20T14:05:54;14;13;
49644;PMS5003;36494;50.730;-1.932;2023-12-20T14:08:20;26;24;
49644;PMS5003;36494;50.730;-1.932;2023-12-20T14:10:45;20;19;
49644;PMS5003;36494;50.730;-1.932;2023-12-20T14:13:10;15;14;
49644;PMS5003;36494;50.730;-1.932;2023-12-20T14:15:35;15;14;
49644;PMS5003;36494;50.730;-1.932;2023-12-20T14:18:01;11;10;
49644;PMS5003;36494;50.730;-1.932;2023-12-20T14:20:27;10;10;
49644;PMS5003;36494;50.730;-1.932;2023-12-20T14:22:55;7;6;
49644;PMS5003;36494;50.730;-1.932;2023-12-20T14:25:17;5;5;
49644;PMS5003;36494;50.730;-1.932;2023-12-20T14:27:43;5;5;
49644;PMS5003;36494;50.730;-1.932;2023-12-20T14:30:08;4;4;
49644;PMS5003;36494;50.730;-1.932;2023-12-20T14:32:34;6;4;
49644;PMS5003;36494;50.730;-1.932;2023-12-20T14:34:59;6;6;
49644;PMS5003;36494;50.730;-1.932;2023-12-20T14:37:24;7;6;
49644;PMS5003;36494;50.730;-1.932;2023-12-20T14:39:49;6;6;
49644;PMS5003;36494;50.730;-1.932;2023-12-20T14:42:15;8;7;
49644;PMS5003;36494;50.730;-1.932;2023-12-20T14:44:41;8;6;
49644;PMS5003;36494;50.730;-1.932;2023-12-20T14:47:09;7;5;
49644;PMS5003;36494;50.730;-1.932;2023-12-20T14:49:32;5;5;
49644;PMS5003;36494;50.730;-1.932;2023-12-20T14:51:57;3;2;
49644;PMS5003;36494;50.730;-1.932;2023-12-20T14:54:22;3;3;
49644;PMS5003;36494;50.730;-1.932;2023-12-20T14:56:48;2;2;
49644;PMS5003;36494;50.730;-1.932;2023-12-20T14:59:13;2;2;
49644;PMS5003;36494;50.730;-1.932;2023-12-20T15:01:38;2;2;
49644;PMS5003;36494;50.730;-1.932;2023-12-20T15:04:04;2;1;
49644;PMS5003;36494;50.730;-1.932;2023-12-20T15:06:29;2;2;
49644;PMS5003;36494;50.730;-1.932;2023-12-20T15:08:54;1;1;
49644;PMS5003;36494;50.730;-1.932;2023-12-20T15:11:23;0;0;
49644;PMS5003;36494;50.730;-1.932;2023-12-20T15:13:45;3;3;
49644;PMS5003;36494;50.730;-1.932;2023-12-20T15:16:11;0;0;
49644;PMS5003;36494;50.730;-1.932;2023-12-20T15:18:36;1;0;
49644;PMS5003;36494;50.730;-1.932;2023-12-20T15:21:02;1;1;
49644;PMS5003;36494;50.730;-1.932;2023-12-20T15:23:30;2;2;
49644;PMS5003;36494;50.730;-1.932;2023-12-20T15:25:53;3;3;
49644;PMS5003;36494;50.730;-1.932;2023-12-20T15:28:18;1;1;
49644;PMS5003;36494;50.730;-1.932;2023-12-20T15:30:44;1;1;
49644;PMS5003;36494;50.730;-1.932;2023-12-20T15:33:09;1;1;
49644;PMS5003;36494;50.730;-1.932;2023-12-20T15:35:34;6;5;
49644;PMS5003;36494;50.730;-1.932;2023-12-20T15:38:00;6;6;
49644;PMS5003;36494;50.730;-1.932;2023-12-20T15:40:25;7;6;
49644;PMS5003;36494;50.730;-1.932;2023-12-20T15:42:51;7;6;
49644;PMS5003;36494;50.730;-1.932;2023-12-20T15:45:16;4;4;
49644;PMS5003;36494;50.730;-1.932;2023-12-20T15:47:42;7;6;
49644;PMS5003;36494;50.730;-1.932;2023-12-20T15:50:07;8;8;
49644;PMS5003;36494;50.730;-1.932;2023-12-20T15:52:32;6;6;
49644;PMS5003;36494;50.730;-1.932;2023-12-20T15:54:57;6;6;
49644;PMS5003;36494;50.730;-1.932;2023-12-20T15:57:23;10;7;
49644;PMS5003;36494;50.730;-1.932;2023-12-20T15:59:49;8;7;
49644;PMS5003;36494;50.730;-1.932;2023-12-20T16:02:15;10;9;
49644;PMS5003;36494;50.730;-1.932;2023-12-20T16:04:40;10;10;
49644;PMS5003;36494;50.730;-1.932;2023-12-20T16:07:06;9;9;
49644;PMS5003;36494;50.730;-1.932;2023-12-20T16:09:31;15;14;
49644;PMS5003;36494;50.730;-1.932;2023-12-20T16:11:58;20;19;
49644;PMS5003;36494;50.730;-1.932;2023-12-20T16:14:22;16;15;
49644;PMS5003;36494;50.730;-1.932;2023-12-20T16:16:47;16;15;
49644;PMS5003;36494;50.730;-1.932;2023-12-20T16:19:12;14;13;